createdAt,value
2022-11-13T00:00:37.071Z,50.96
2022-11-13T00:05:36.304Z,49.70
2022-11-13T00:10:35.505Z,50.03
2022-11-13T00:15:35.697Z,50.13
2022-11-13T00:20:35.869Z,51.50
2022-11-13T00:25:34.052Z,51.17
2022-11-13T00:30:32.293Z,51.60
2022-11-13T00:35:31.505Z,54.86
2022-11-13T00:40:30.689Z,32.03
2022-11-13T00:45:29.887Z,30.48
2022-11-13T00:50:30.057Z,30.60
2022-11-13T00:55:28.230Z,30.71
2022-11-13T01:00:27.404Z,31.02
2022-11-13T01:05:26.591Z,31.22
2022-11-13T01:10:25.789Z,31.43
2022-11-13T01:15:24.999Z,31.65
2022-11-13T01:20:25.183Z,31.85
2022-11-13T01:25:23.349Z,32.06
2022-11-13T01:30:24.590Z,32.37
2022-11-13T01:35:21.891Z,32.68
2022-11-13T01:40:23.253Z,33.00
2022-11-13T01:45:22.540Z,33.40
2022-11-13T01:50:19.858Z,33.72
2022-11-13T01:55:19.141Z,34.03
2022-11-13T02:00:19.442Z,34.46
2022-11-13T02:05:17.739Z,34.76
2022-11-13T02:10:18.037Z,35.17
2022-11-13T02:15:17.345Z,35.39
2022-11-13T02:20:15.669Z,35.71
2022-11-13T02:25:15.833Z,36.02
2022-11-13T02:30:16.042Z,36.34
2022-11-13T02:35:13.290Z,36.64
2022-11-13T02:40:14.614Z,36.85
2022-11-13T02:45:11.936Z,37.17
2022-11-13T02:50:12.036Z,37.37
2022-11-13T02:55:10.345Z,37.49
2022-11-13T03:00:13.804Z,37.68
2022-11-13T03:05:12.921Z,37.81
2022-11-13T03:10:09.104Z,38.00
2022-11-13T03:15:07.408Z,38.22
2022-11-13T03:20:06.705Z,38.32
2022-11-13T03:25:10.151Z,38.42
2022-11-13T03:30:05.256Z,38.64
2022-11-13T03:35:05.551Z,38.74
2022-11-13T03:40:03.835Z,38.85
2022-11-13T03:45:03.128Z,39.06
2022-11-13T03:50:03.396Z,39.15
2022-11-13T03:55:02.668Z,39.28
2022-11-13T04:00:01.966Z,39.37
2022-11-13T04:05:00.276Z,39.50
2022-11-13T04:09:59.584Z,39.59
2022-11-13T04:14:58.912Z,39.79
2022-11-13T04:19:58.223Z,39.79
2022-11-13T04:24:59.531Z,39.91
2022-11-13T04:29:56.817Z,40.01
2022-11-13T04:34:56.146Z,40.01
2022-11-13T04:39:55.449Z,40.11
2022-11-13T04:44:54.745Z,40.23
2022-11-13T04:49:54.144Z,40.33
2022-11-13T04:54:53.262Z,40.43
2022-11-13T04:59:54.601Z,40.43
2022-11-13T05:04:51.907Z,40.55
2022-11-13T05:09:52.228Z,40.65
2022-11-13T05:14:50.538Z,40.65
2022-11-13T05:19:50.853Z,40.65
2022-11-13T05:24:48.132Z,40.75
2022-11-13T05:29:49.440Z,40.85
2022-11-13T05:34:49.715Z,40.87
2022-11-13T05:39:48.040Z,40.87
2022-11-13T05:44:48.120Z,40.97
2022-11-13T05:49:45.418Z,40.97
2022-11-13T05:54:46.742Z,40.97
2022-11-13T05:59:44.027Z,41.07
2022-11-13T06:04:43.336Z,41.19
2022-11-13T06:09:42.653Z,41.19
2022-11-13T06:14:42.964Z,41.19
2022-11-13T06:19:41.266Z,41.29
2022-11-13T06:24:41.570Z,41.29
2022-11-13T06:29:40.890Z,41.29
2022-11-13T06:34:40.198Z,41.29
2022-11-13T06:39:38.474Z,41.39
2022-11-13T06:44:37.756Z,41.41
2022-11-13T06:49:37.022Z,41.41
2022-11-13T06:54:36.300Z,41.51
2022-11-13T06:59:35.585Z,41.51
2022-11-13T07:04:35.860Z,41.51
2022-11-13T07:09:35.126Z,41.51
2022-11-13T07:14:34.405Z,41.51
2022-11-13T07:19:32.715Z,41.61
2022-11-13T07:24:33.055Z,41.63
2022-11-13T07:29:31.233Z,41.63
2022-11-13T07:34:32.379Z,41.63
2022-11-13T07:39:30.478Z,41.74
2022-11-13T07:44:52.945Z,41.74
2022-11-13T07:49:27.999Z,41.74
2022-11-13T07:54:27.297Z,41.74
2022-11-13T07:59:27.577Z,41.74
2022-11-13T08:04:26.898Z,41.74
2022-11-13T08:09:26.292Z,41.83
2022-11-13T08:14:24.391Z,41.74
2022-11-13T08:19:23.691Z,41.85
2022-11-13T08:24:23.977Z,41.75
2022-11-13T08:29:22.274Z,41.85
2022-11-13T08:34:22.585Z,41.85
2022-11-13T08:39:21.895Z,41.85
2022-11-13T08:44:20.032Z,41.85
2022-11-13T08:49:20.331Z,41.85
2022-11-13T08:54:19.617Z,41.85
2022-11-13T08:59:18.952Z,41.85
2022-11-13T09:04:17.096Z,42.05
2022-11-13T09:09:16.239Z,40.57
2022-11-13T09:14:16.386Z,32.86
2022-11-13T09:19:16.506Z,29.47
2022-11-13T09:24:15.861Z,29.32
2022-11-13T09:29:14.190Z,27.78
2022-11-13T09:34:13.482Z,27.87
2022-11-13T09:39:12.839Z,28.40
2022-11-13T09:44:11.941Z,27.97
2022-11-13T09:49:10.257Z,27.56
2022-11-13T09:54:09.568Z,27.25
2022-11-13T09:59:09.874Z,27.14
2022-11-13T10:04:14.057Z,26.73
2022-11-13T10:09:08.486Z,26.73
2022-11-13T10:14:07.754Z,26.62
2022-11-13T10:19:07.047Z,26.72
2022-11-13T10:24:06.602Z,26.21
2022-11-13T10:29:05.642Z,25.94
2022-11-13T10:34:03.792Z,26.48
2022-11-13T10:39:04.123Z,26.89
2022-11-13T10:44:02.431Z,27.41
2022-11-13T10:49:01.729Z,27.81
2022-11-13T10:54:01.049Z,27.51
2022-11-13T10:59:00.381Z,27.52
2022-11-13T11:03:59.568Z,28.14
2022-11-13T11:08:59.755Z,27.64
2022-11-13T11:13:57.934Z,27.55
2022-11-13T11:18:57.154Z,27.03
2022-11-13T11:23:56.531Z,26.82
2022-11-13T11:28:55.558Z,27.04
2022-11-13T11:33:54.877Z,27.11
2022-11-13T11:38:54.064Z,26.94
2022-11-13T11:43:53.253Z,26.86
2022-11-13T11:48:52.425Z,27.50
2022-11-13T11:53:51.589Z,27.60
2022-11-13T11:58:51.833Z,28.90
2022-11-13T12:03:49.956Z,28.70
2022-11-13T12:08:49.156Z,26.97
2022-11-13T12:13:49.358Z,27.58
2022-11-13T12:18:47.526Z,28.06
2022-11-13T12:23:46.795Z,26.71
2022-11-13T12:28:45.978Z,26.43
2022-11-13T12:33:45.226Z,25.99
2022-11-13T12:38:44.385Z,26.13
2022-11-13T12:43:44.563Z,26.34
2022-11-13T12:48:42.726Z,26.01
2022-11-13T12:53:41.883Z,24.95
2022-11-13T12:58:43.046Z,26.41
2022-11-13T13:03:40.221Z,25.90
2022-11-13T13:08:39.416Z,26.12
2022-11-13T13:13:37.597Z,26.02
2022-11-13T13:18:37.787Z,25.29
2022-11-13T13:23:37.978Z,25.82
2022-11-13T13:28:36.150Z,25.68
2022-11-13T13:33:36.366Z,26.08
2022-11-13T13:38:35.552Z,26.40
2022-11-13T13:43:34.715Z,26.17
2022-11-13T13:48:35.893Z,25.85
2022-11-13T13:53:32.138Z,25.65
2022-11-13T13:58:32.655Z,25.76
2022-11-13T14:03:30.483Z,26.28
2022-11-13T14:08:29.994Z,26.81
2022-11-13T14:13:28.933Z,26.17
2022-11-13T14:18:29.633Z,25.99
2022-11-13T14:23:27.284Z,26.23
2022-11-13T14:28:27.741Z,26.25
2022-11-13T14:33:25.998Z,26.94
2022-11-13T14:38:24.973Z,26.34
2022-11-13T14:43:24.176Z,26.83
2022-11-13T14:48:23.378Z,26.62
2022-11-13T14:53:22.567Z,26.32
2022-11-13T14:58:21.766Z,26.43
2022-11-13T15:03:21.035Z,25.09
2022-11-13T15:08:21.334Z,25.71
2022-11-13T15:13:19.798Z,24.91
2022-11-13T15:18:18.835Z,26.10
2022-11-13T15:23:18.204Z,25.62
2022-11-13T15:28:18.388Z,25.92
2022-11-13T15:33:17.796Z,26.23
2022-11-13T15:38:17.787Z,25.76
2022-11-13T15:43:15.406Z,26.66
2022-11-13T15:48:14.689Z,27.14
2022-11-13T15:53:14.681Z,25.84
2022-11-13T15:58:13.046Z,26.75
2022-11-13T16:03:12.007Z,27.56
2022-11-13T16:08:11.682Z,26.76
2022-11-13T16:13:11.811Z,26.24
2022-11-13T16:18:11.209Z,26.65
2022-11-13T16:23:10.248Z,26.64
2022-11-13T16:28:08.696Z,26.96
2022-11-13T16:33:07.660Z,26.77
2022-11-13T16:38:09.118Z,27.49
2022-11-13T16:43:07.523Z,27.36
2022-11-13T16:48:06.569Z,29.83
2022-11-13T16:53:05.033Z,26.72
2022-11-13T16:58:05.257Z,26.21
2022-11-13T17:03:04.356Z,27.64
2022-11-13T17:08:02.795Z,27.00
2022-11-13T17:13:02.930Z,27.22
2022-11-13T17:18:01.209Z,24.65
2022-11-13T17:23:00.667Z,35.97
2022-11-13T17:27:59.999Z,32.62
2022-11-13T17:32:59.174Z,38.37
2022-11-13T17:38:09.633Z,40.64
2022-11-13T17:42:57.252Z,41.79
2022-11-13T17:47:56.714Z,42.64
2022-11-13T17:52:56.022Z,41.91
2022-11-13T17:57:55.378Z,41.50
2022-11-13T18:02:55.556Z,42.76
2022-11-13T18:07:53.392Z,45.59
2022-11-13T18:12:52.901Z,43.89
2022-11-13T18:17:51.962Z,44.62
2022-11-13T18:22:51.281Z,45.25
2022-11-13T18:27:50.636Z,44.29
2022-11-13T18:32:54.169Z,44.92
2022-11-13T18:37:49.008Z,45.42
2022-11-13T18:42:49.056Z,44.62
2022-11-13T18:47:47.638Z,44.52
2022-11-13T18:52:47.843Z,45.15
2022-11-13T18:57:46.018Z,44.72
2022-11-13T19:02:45.085Z,46.63
2022-11-13T19:07:45.144Z,45.03
2022-11-13T19:12:43.254Z,42.84
2022-11-13T19:17:42.905Z,45.41
2022-11-13T19:22:44.843Z,41.93
2022-11-13T19:27:41.552Z,39.65
2022-11-13T19:32:40.866Z,43.14
2022-11-13T19:37:40.232Z,42.72
2022-11-13T19:42:41.965Z,44.20
2022-11-13T19:47:39.645Z,42.96
2022-11-13T19:52:38.402Z,47.65
2022-11-13T19:57:38.297Z,40.42
2022-11-13T20:02:36.488Z,41.71
2022-11-13T20:07:35.636Z,42.33
2022-11-13T20:12:38.876Z,43.71
2022-11-13T20:17:34.322Z,43.18
2022-11-13T20:22:33.439Z,44.82
2022-11-13T20:27:37.163Z,45.87
2022-11-13T20:32:32.101Z,44.32
2022-11-13T20:37:31.378Z,44.95
2022-11-13T20:42:33.682Z,45.17
2022-11-13T20:47:29.702Z,43.83
2022-11-13T20:52:29.814Z,42.70
2022-11-13T20:57:30.118Z,43.38
2022-11-13T21:02:28.545Z,44.66
2022-11-13T21:07:26.804Z,40.88
2022-11-13T21:12:26.147Z,45.42
2022-11-13T21:17:25.378Z,44.64
2022-11-13T21:22:24.751Z,43.91
2022-11-13T21:27:23.759Z,45.79
2022-11-13T21:32:23.095Z,45.70
2022-11-13T21:37:22.046Z,45.82
2022-11-13T21:42:21.374Z,45.31
2022-11-13T21:47:20.503Z,46.12
2022-11-13T21:52:19.877Z,45.67
2022-11-13T21:57:19.065Z,41.81
2022-11-13T22:02:18.247Z,44.26
2022-11-13T22:07:17.503Z,44.89
2022-11-13T22:12:16.738Z,43.95
2022-11-13T22:17:17.018Z,43.63
2022-11-13T22:22:15.169Z,43.75
2022-11-13T22:27:14.350Z,44.26
2022-11-13T22:32:13.465Z,44.89
2022-11-13T22:37:14.885Z,45.31
2022-11-13T22:42:12.006Z,46.04
2022-11-13T22:47:11.384Z,45.82
2022-11-13T22:52:10.504Z,32.12
2022-11-13T22:57:09.811Z,29.16
2022-11-13T23:02:10.120Z,29.16
2022-11-13T23:07:08.499Z,29.77
2022-11-13T23:12:07.608Z,27.51
2022-11-13T23:17:06.937Z,27.59
2022-11-13T23:22:06.333Z,28.24
2022-11-13T23:27:05.225Z,25.94
2022-11-13T23:32:04.542Z,26.85
2022-11-13T23:37:03.894Z,27.19
2022-11-13T23:42:03.056Z,27.42
2022-11-13T23:47:04.193Z,28.62
2022-11-13T23:52:01.553Z,28.75
2022-11-13T23:57:00.708Z,28.21
